»·PEaware :: AAY162 KAMA-KABQ

AAY162 :: KAMA-KABQ

FLIGHT INFORMATION

Flight Status: Arrived
Operator:
Allegiant Air
More flights by this operator :: More flights under this callsign
Pilot: Kyle C. (5257)
Aircraft: AIRBUS A319
(A319)
More flights by this aircraft type
Origin: KAMA Amarillo Intl
United States
Destination: KABQ Albuquerque Intl Sunport
United States
More flights between these airports :: More routes between these airports
Route: +PNH V12 ACH V234 ABQ
File this flight plan on PilotEdge
Remarks:
Altitude:
(Current/Filed)
27,000ft
Speed:
(Current/Filed)
330kts
Departed: 14-Jul-17 01:49 PM
Arrived: 14-Jul-17 02:37 PM
Distance/Time
Traveled:
241nm/0:48
Distance/Time
To Go:
Arrived

Flight Plot

Page will automatically refresh every two minutes.

Flight plan parsing failed; only flown route is shown


Map Options




Map Legend


Flown Route
Filed Route
Departure Airport
Arrival Airport
Navaid (VOR, NDB)
Fix

Horizontal Profiles

Position Reports

Time Latitude Longitude Heading Altitude Ground
Speed
14-Jul-17 13:31 35.217007 -101.710864 134 3621ft 0kts
14-Jul-17 13:32 35.217007 -101.710864 134 3621ft 0kts
14-Jul-17 13:33 35.217007 -101.710864 134 3621ft 0kts
14-Jul-17 13:34 35.217007 -101.710864 134 3621ft 0kts
14-Jul-17 13:35 35.217007 -101.710864 134 3621ft 0kts
14-Jul-17 13:36 35.217007 -101.710864 134 3621ft 0kts
14-Jul-17 13:37 35.217007 -101.710864 134 3621ft 0kts
14-Jul-17 13:38 35.217007 -101.710864 134 3621ft 0kts
14-Jul-17 13:39 35.217007 -101.710864 134 3621ft 0kts
14-Jul-17 13:40 35.217007 -101.710864 134 3621ft 0kts
14-Jul-17 13:41 35.217007 -101.710864 134 3621ft 0kts
14-Jul-17 13:42 35.217342 -101.711280 134 3621ft 2kts
14-Jul-17 13:43 35.217727 -101.711760 134 3621ft 0kts
14-Jul-17 13:44 35.217726 -101.711758 134 3621ft 0kts
14-Jul-17 13:45 35.217690 -101.711617 81 3621ft 3kts
14-Jul-17 13:46 35.219679 -101.710635 40 3621ft 12kts
14-Jul-17 13:47 35.222041 -101.707631 46 3621ft 18kts
14-Jul-17 13:48 35.226411 -101.702014 46 3621ft 23kts
14-Jul-17 13:49 35.229993 -101.699587 317 3621ft 0kts
14-Jul-17 13:50 35.229995 -101.699589 317 3621ft 0kts
14-Jul-17 13:51 35.230615 -101.700339 290 3621ft 12kts
14-Jul-17 13:52 35.216353 -101.719000 226 4162ft 179kts
14-Jul-17 13:53 35.186529 -101.772216 225 8219ft 190kts
14-Jul-17 13:54 35.160275 -101.835653 268 9825ft 269kts
14-Jul-17 13:55 35.206193 -101.919481 284 12233ft 333kts
14-Jul-17 13:56 35.211656 -102.034265 271 15688ft 351kts
14-Jul-17 13:57 35.214964 -102.153763 271 15993ft 351kts
14-Jul-17 13:58 35.217842 -102.273557 270 16005ft 352kts
14-Jul-17 13:59 35.219518 -102.393057 267 16007ft 351kts
14-Jul-17 14:00 35.216157 -102.512824 266 16002ft 352kts
14-Jul-17 14:01 35.212893 -102.633006 266 15980ft 353kts
14-Jul-17 14:02 35.209555 -102.753827 266 15918ft 356kts
14-Jul-17 14:03 35.206090 -102.874828 266 15916ft 356kts
14-Jul-17 14:04 35.202500 -102.996244 266 15868ft 356kts
14-Jul-17 14:05 35.198804 -103.117164 266 15865ft 356kts
14-Jul-17 14:06 35.194925 -103.238501 266 15810ft 356kts
14-Jul-17 14:07 35.190588 -103.359404 266 15805ft 356kts
14-Jul-17 14:08 35.186478 -103.480206 266 15729ft 356kts
14-Jul-17 14:09 35.182244 -103.601302 265 15730ft 356kts
14-Jul-17 14:10 35.176892 -103.721932 265 15729ft 356kts
14-Jul-17 14:11 35.171557 -103.842623 265 15750ft 356kts
14-Jul-17 14:12 35.166085 -103.963731 265 15779ft 356kts
14-Jul-17 14:13 35.160375 -104.084509 265 15838ft 357kts
14-Jul-17 14:14 35.154684 -104.205687 265 15866ft 357kts
14-Jul-17 14:15 35.148891 -104.327004 265 15911ft 357kts
14-Jul-17 14:16 35.142973 -104.448267 265 15940ft 358kts
14-Jul-17 14:17 35.136969 -104.569413 264 16049ft 358kts
14-Jul-17 14:18 35.130777 -104.691401 264 16150ft 358kts
14-Jul-17 14:19 35.124479 -104.812705 264 16175ft 359kts
14-Jul-17 14:20 35.118064 -104.934155 264 16176ft 358kts
14-Jul-17 14:21 35.106336 -105.054644 251 16173ft 356kts
14-Jul-17 14:22 35.071440 -105.167478 247 16169ft 356kts
14-Jul-17 14:23 35.035592 -105.280443 247 16159ft 355kts
14-Jul-17 14:24 34.999934 -105.392559 247 16157ft 355kts
14-Jul-17 14:25 34.964099 -105.504850 247 16157ft 354kts
14-Jul-17 14:26 34.932161 -105.604572 246 16115ft 353kts
14-Jul-17 14:27 34.896318 -105.716159 246 16111ft 354kts
14-Jul-17 14:28 34.860805 -105.828101 252 16108ft 355kts
14-Jul-17 14:29 34.871873 -105.947585 283 16109ft 361kts
14-Jul-17 14:30 34.898178 -106.064961 283 15463ft 353kts
14-Jul-17 14:31 34.921043 -106.179104 281 13291ft 341kts
14-Jul-17 14:32 34.943335 -106.293585 282 13065ft 348kts
14-Jul-17 14:33 34.965650 -106.408562 283 11864ft 356kts
14-Jul-17 14:34 34.972018 -106.524084 268 10044ft 310kts
14-Jul-17 14:35 34.973043 -106.625585 278 9895ft 273kts
14-Jul-17 14:36 34.986697 -106.713387 290 8407ft 254kts
14-Jul-17 14:37 35.030483 -106.756800 17 7473ft 181kts
14-Jul-17 14:38 35.045029 -106.706289 95 6528ft 175kts
14-Jul-17 14:39 35.044378 -106.645356 88 5850ft 174kts
14-Jul-17 14:40 35.044203 -106.598601 89 5369ft 29kts
14-Jul-17 14:41 35.045753 -106.600466 269 5369ft 13kts
14-Jul-17 14:42 35.045801 -106.605666 271 5369ft 23kts
14-Jul-17 14:43 35.045979 -106.613568 272 5369ft 18kts
14-Jul-17 14:44 35.046939 -106.614416 359 5369ft 0kts

Navigation Log

Ident Type
Flight plan parsing failed, navigation log unavailable